Home   Weather   Germany   Munich   Past weeks
Flag for Germany

Past Weather in Munich, Bavaria, Germany — October 2023

Currently: 46 °F. Scattered clouds. (Weather station: Oberpfaffenhofen, Germany). See more current weather

October 2023 Weather in Munich — Graph

°F

High & Low Weather Summary for October 2023

 TemperatureHumidityPressure
High79 °F (Oct 2, 5:20 pm)100% (Oct 1, 2:50 am)30.42 "Hg (Oct 1, 2:50 am)
Low28 °F (Oct 16, 5:50 am)26% (Oct 13, 12:50 pm)28.97 "Hg (Oct 20, 9:50 am)
Average54 °F78%29.94 "Hg
* Reported Oct 1 12:20 am — Oct 31 11:50 pm, Munich. Weather by CustomWeather, © 2024

Note: Actual official high and low records may vary slightly from our data, if they occured in-between our weather recording intervals... More about our weather records

Munich Weather History for October 1, 2023

Scroll right to see more
 ConditionsComfort  
Time TempWeatherWind HumidityBarometerVisibility
12:20 am
Sun, Oct 1
48 °FClear.3 mph94%30.36 "HgN/A
12:50 am50 °FClear.2 mph94%30.36 "HgN/A
1:20 am48 °FClear.3 mph94%30.36 "HgN/A
2:50 am46 °FClear.2 mph100%30.36 "HgN/A
3:20 am45 °FClear.2 mph100%30.36 "HgN/A
3:50 am43 °FClear.2 mph100%30.33 "HgN/A
4:20 am45 °FClear.3 mph100%30.33 "HgN/A
4:50 am48 °FClear.2 mph94%30.33 "HgN/A
5:20 am48 °FClear.2 mph100%30.33 "Hg1 mi
5:50 am46 °FDense fog.2 mph100%30.33 "Hg1 mi
6:20 am48 °FPassing clouds.3 mph100%30.33 "Hg4 mi
6:50 am46 °FClear.3 mph100%30.33 "Hg4 mi
7:20 am48 °FSunny.3 mph94%30.33 "HgN/A
7:50 am48 °FSunny.5 mph94%30.33 "HgN/A
8:20 am52 °FSunny.5 mph100%30.33 "HgN/A
8:50 am55 °FSunny.3 mph88%30.36 "HgN/A
9:20 am57 °FSunny.5 mph88%30.36 "HgN/A
9:50 am59 °FSunny.3 mph88%30.36 "HgN/A
10:20 am61 °FSunny.3 mph83%30.36 "HgN/A
10:50 am63 °FSunny.5 mph77%30.36 "HgN/A
11:20 am66 °FSunny.2 mph68%30.36 "HgN/A
11:50 am66 °FPassing clouds.3 mph60%30.36 "HgN/A
12:20 pm68 °FSunny.3 mph60%30.36 "Hg10 mi
12:50 pm68 °FSunny.2 mph64%30.36 "HgN/A
1:20 pm68 °FSunny.6 mph60%30.36 "HgN/A
1:50 pm70 °FSunny.5 mph60%30.33 "HgN/A
2:20 pm70 °FSunny.3 mph57%30.33 "HgN/A
2:50 pm70 °FSunny.5 mph57%30.33 "HgN/A
3:20 pm70 °FSunny.5 mph57%30.33 "HgN/A
3:50 pm72 °FSunny.5 mph50%30.30 "HgN/A
4:20 pm72 °FSunny.2 mph53%30.30 "HgN/A
4:50 pm72 °FSunny.2 mph47%30.30 "HgN/A
5:20 pm73 °FSunny.2 mph44%30.30 "HgN/A
5:50 pm73 °FSunny.No wind47%30.30 "HgN/A
6:20 pm66 °FSunny.1 mph64%30.30 "HgN/A
6:50 pm63 °FSunny.1 mph77%30.30 "HgN/A
7:20 pm57 °FClear.2 mph88%30.30 "HgN/A
7:50 pm55 °FClear.3 mph88%30.30 "HgN/A
8:20 pm55 °FClear.3 mph88%30.33 "HgN/A
8:50 pm54 °FClear.5 mph94%30.30 "HgN/A
9:20 pm54 °FClear.3 mph88%30.33 "HgN/A
9:50 pm54 °FClear.5 mph94%30.30 "HgN/A
10:20 pm52 °FClear.2 mph94%30.33 "HgN/A
10:50 pm50 °FClear.3 mph100%30.30 "HgN/A
11:20 pm50 °FClear.3 mph94%30.30 "HgN/A
11:50 pm50 °FClear.No wind100%30.30 "HgN/A
Weather by CustomWeather, © 2024

See weather overview